Sanmanyoshi7 — JD4004 — position and weather

sailwx.info

Track history (hours):
 
Tides and Currents Weather Stations Pressure Air Temp Water Temp Dewpoint Dewpoint Depression Visibility Wind Speed Wind Dir Waves Ship Positions

Sanmanyoshi7

Last reported at 2017-Sep-21 19:44 UTC. Time now 2017-Sep-22 22:37 UTC.
Position N 34°41' E 134°50'.

Length 61 m; draft 3.5 m.

Type: Cargo ship. MMSI: 431007715.

Date/timePositionNaut miles runAvg speedWind from/ knotsBaromVisibWave heightAir tempDewpointWater temp
2017-Sep-21 19:44N 34°41' E 134°50'510.5
2017-Sep-21 19:13N 34°38' E 134°56'311.9
2017-Sep-21 19:00N 34°38' E 134°59'4 8.6
2017-Sep-21 18:30N 34°36' E 135°04'611.7
2017-Sep-21 18:00N 34°37' E 135°11'612.7
2017-Sep-21 17:30N 34°37' E 135°18'611.9
2017-Sep-21 17:00N 34°36' E 135°26'2 0.2
2017-Sep-21 07:09N 34°34' E 135°27'1 4.7
2017-Sep-21 06:59N 34°35' E 135°27'510.2
2017-Sep-21 06:30N 34°36' E 135°21'611.3
2017-Sep-21 06:00N 34°35' E 135°14'611.6
2017-Sep-21 05:30N 34°35' E 135°07'  
2017-Sep-15 15:18N 34°41' E 134°48'2 0.1
2017-Sep-14 19:16N 34°40' E 134°50'511.7
2017-Sep-14 18:48N 34°38' E 134°56'412.0
2017-Sep-14 18:29N 34°38' E 135°00'611.8
2017-Sep-14 18:00N 34°37' E 135°07'612.0
2017-Sep-14 17:30N 34°38' E 135°14'4 8.9
2017-Sep-14 17:00N 34°42' E 135°15'0 0.2
2017-Sep-14 16:30N 34°42' E 135°15'0 0.0
2017-Sep-14 16:00N 34°42' E 135°15'0 0.1
2017-Sep-14 15:30N 34°42' E 135°15'1 1.4
2017-Sep-14 15:00N 34°41' E 135°15'0 0.0
2017-Sep-14 14:30N 34°41' E 135°15'0 0.0
2017-Sep-14 14:00N 34°41' E 135°15'0 0.0
2017-Sep-14 13:30N 34°41' E 135°15'0 0.0
2017-Sep-14 13:00N 34°41' E 135°15'0 0.0
2017-Sep-14 12:30N 34°41' E 135°15'0 0.0
2017-Sep-14 12:00N 34°41' E 135°15'0 0.0
2017-Sep-14 11:30N 34°41' E 135°15'1 1.8
2017-Sep-14 11:00N 34°42' E 135°15'0 0.0
2017-Sep-14 10:30N 34°42' E 135°15'0 0.0
2017-Sep-14 10:00N 34°42' E 135°15'0 0.0
2017-Sep-14 09:30N 34°42' E 135°15'0 0.0
2017-Sep-14 09:00N 34°42' E 135°15'0 0.2
2017-Sep-14 08:30N 34°42' E 135°15'0 0.0
2017-Sep-14 08:00N 34°42' E 135°15'0 0.0
2017-Sep-14 07:30N 34°42' E 135°15'0 0.0
2017-Sep-14 07:00N 34°42' E 135°15'0 0.0
2017-Sep-14 06:30N 34°42' E 135°15'0 0.0
2017-Sep-14 06:00N 34°42' E 135°15'4 7.3
2017-Sep-14 05:30N 34°39' E 135°17'611.4
2017-Sep-14 05:00N 34°37' E 135°23'3 6.7
2017-Sep-14 04:30N 34°35' E 135°27'0 0.0
2017-Sep-14 03:56N 34°35' E 135°27'1 1.2
2017-Sep-14 03:30N 34°35' E 135°26'0 0.0
2017-Sep-14 03:00N 34°35' E 135°26'0 0.0
2017-Sep-14 02:28N 34°35' E 135°26'0 0.1
2017-Sep-14 01:48N 34°35' E 135°26'0 0.0
2017-Sep-14 01:29N 34°35' E 135°26'0 0.1
2017-Sep-14 00:58N 34°35' E 135°26'4 8.4
2017-Sep-14 00:30N 34°38' E 135°23'3 6.0
2017-Sep-14 00:00N 34°40' E 135°26'0 0.0
2017-Sep-13 23:30N 34°40' E 135°26'0 0.0
2017-Sep-13 23:00N 34°40' E 135°26'0 0.0
2017-Sep-13 22:30N 34°40' E 135°26'1 1.4
2017-Sep-13 22:00N 34°39' E 135°25'2 4.8
2017-Sep-13 21:30N 34°40' E 135°22'0 0.0
2017-Sep-13 21:00N 34°40' E 135°22'0 0.0
2017-Sep-13 20:30N 34°40' E 135°22'0 0.0
2017-Sep-13 20:00N 34°40' E 135°22'0 0.0
2017-Sep-13 19:30N 34°40' E 135°22'0 0.0
2017-Sep-13 19:00N 34°40' E 135°22'0 0.0
2017-Sep-13 18:30N 34°40' E 135°22'0 0.1
2017-Sep-13 17:58N 34°40' E 135°22'0 0.1
2017-Sep-13 17:29N 34°40' E 135°22'0 0.0
2017-Sep-13 17:00N 34°40' E 135°22'0 0.0
2017-Sep-13 16:30N 34°40' E 135°22'0 0.0
2017-Sep-13 16:00N 34°40' E 135°22'0 0.0
2017-Sep-13 15:31N 34°40' E 135°22'0 0.0
2017-Sep-13 15:00N 34°40' E 135°22'0 0.0
2017-Sep-13 14:30N 34°40' E 135°22'0 0.0
2017-Sep-13 14:01N 34°40' E 135°22'0 0.1
2017-Sep-13 13:30N 34°40' E 135°22'0 0.0
2017-Sep-13 13:01N 34°40' E 135°22'0 0.0
2017-Sep-13 12:31N 34°40' E 135°22'0 0.0
2017-Sep-13 12:01N 34°40' E 135°22'0 0.0
2017-Sep-13 11:31N 34°40' E 135°22'0 0.0
2017-Sep-13 11:01N 34°40' E 135°22'0 0.0
2017-Sep-13 10:30N 34°40' E 135°22'1 2.6
2017-Sep-13 10:01N 34°39' E 135°21'611.3
2017-Sep-13 09:31N 34°36' E 135°15'611.5
2017-Sep-13 09:00N 34°35' E 135°08'510.9
2017-Sep-13 08:31N 34°36' E 135°02'  
Track history (hours):
 
Tides and Currents Weather Stations Pressure Air Temp Water Temp Dewpoint Dewpoint Depression Visibility Wind Speed Wind Dir Waves Ship Positions

Sanmanyoshi7

Last reported at 2017-Sep-21 19:44 UTC. Time now 2017-Sep-22 22:37 UTC.
Position N 34°41' E 134°50'.

Length 61 m; draft 3.5 m.

Type: Cargo ship. MMSI: 431007715.

Date/timePositionNaut miles runAvg speedWind from/ knotsBaromVisibWave heightAir tempDewpointWater temp
2017-Sep-21 19:44N 34°41' E 134°50'510.5
2017-Sep-21 19:13N 34°38' E 134°56'311.9
2017-Sep-21 19:00N 34°38' E 134°59'4 8.6
2017-Sep-21 18:30N 34°36' E 135°04'611.7
2017-Sep-21 18:00N 34°37' E 135°11'612.7
2017-Sep-21 17:30N 34°37' E 135°18'611.9
2017-Sep-21 17:00N 34°36' E 135°26'2 0.2
2017-Sep-21 07:09N 34°34' E 135°27'1 4.7
2017-Sep-21 06:59N 34°35' E 135°27'510.2
2017-Sep-21 06:30N 34°36' E 135°21'611.3
2017-Sep-21 06:00N 34°35' E 135°14'611.6
2017-Sep-21 05:30N 34°35' E 135°07'  
2017-Sep-15 15:18N 34°41' E 134°48'2 0.1
2017-Sep-14 19:16N 34°40' E 134°50'511.7
2017-Sep-14 18:48N 34°38' E 134°56'412.0
2017-Sep-14 18:29N 34°38' E 135°00'611.8
2017-Sep-14 18:00N 34°37' E 135°07'612.0
2017-Sep-14 17:30N 34°38' E 135°14'4 8.9
2017-Sep-14 17:00N 34°42' E 135°15'0 0.2
2017-Sep-14 16:30N 34°42' E 135°15'0 0.0
2017-Sep-14 16:00N 34°42' E 135°15'0 0.1
2017-Sep-14 15:30N 34°42' E 135°15'1 1.4
2017-Sep-14 15:00N 34°41' E 135°15'0 0.0
2017-Sep-14 14:30N 34°41' E 135°15'0 0.0
2017-Sep-14 14:00N 34°41' E 135°15'0 0.0
2017-Sep-14 13:30N 34°41' E 135°15'0 0.0
2017-Sep-14 13:00N 34°41' E 135°15'0 0.0
2017-Sep-14 12:30N 34°41' E 135°15'0 0.0
2017-Sep-14 12:00N 34°41' E 135°15'0 0.0
2017-Sep-14 11:30N 34°41' E 135°15'1 1.8
2017-Sep-14 11:00N 34°42' E 135°15'0 0.0
2017-Sep-14 10:30N 34°42' E 135°15'0 0.0
2017-Sep-14 10:00N 34°42' E 135°15'0 0.0
2017-Sep-14 09:30N 34°42' E 135°15'0 0.0
2017-Sep-14 09:00N 34°42' E 135°15'0 0.2
2017-Sep-14 08:30N 34°42' E 135°15'0 0.0
2017-Sep-14 08:00N 34°42' E 135°15'0 0.0
2017-Sep-14 07:30N 34°42' E 135°15'0 0.0
2017-Sep-14 07:00N 34°42' E 135°15'0 0.0
2017-Sep-14 06:30N 34°42' E 135°15'0 0.0
2017-Sep-14 06:00N 34°42' E 135°15'4 7.3
2017-Sep-14 05:30N 34°39' E 135°17'611.4
2017-Sep-14 05:00N 34°37' E 135°23'3 6.7
2017-Sep-14 04:30N 34°35' E 135°27'0 0.0
2017-Sep-14 03:56N 34°35' E 135°27'1 1.2
2017-Sep-14 03:30N 34°35' E 135°26'0 0.0
2017-Sep-14 03:00N 34°35' E 135°26'0 0.0
2017-Sep-14 02:28N 34°35' E 135°26'0 0.1
2017-Sep-14 01:48N 34°35' E 135°26'0 0.0
2017-Sep-14 01:29N 34°35' E 135°26'0 0.1
2017-Sep-14 00:58N 34°35' E 135°26'4 8.4
2017-Sep-14 00:30N 34°38' E 135°23'3 6.0
2017-Sep-14 00:00N 34°40' E 135°26'0 0.0
2017-Sep-13 23:30N 34°40' E 135°26'0 0.0
2017-Sep-13 23:00N 34°40' E 135°26'0 0.0
2017-Sep-13 22:30N 34°40' E 135°26'1 1.4
2017-Sep-13 22:00N 34°39' E 135°25'2 4.8
2017-Sep-13 21:30N 34°40' E 135°22'0 0.0
2017-Sep-13 21:00N 34°40' E 135°22'0 0.0
2017-Sep-13 20:30N 34°40' E 135°22'0 0.0
2017-Sep-13 20:00N 34°40' E 135°22'0 0.0
2017-Sep-13 19:30N 34°40' E 135°22'0 0.0
2017-Sep-13 19:00N 34°40' E 135°22'0 0.0
2017-Sep-13 18:30N 34°40' E 135°22'0 0.1
2017-Sep-13 17:58N 34°40' E 135°22'0 0.1
2017-Sep-13 17:29N 34°40' E 135°22'0 0.0
2017-Sep-13 17:00N 34°40' E 135°22'0 0.0
2017-Sep-13 16:30N 34°40' E 135°22'0 0.0
2017-Sep-13 16:00N 34°40' E 135°22'0 0.0
2017-Sep-13 15:31N 34°40' E 135°22'0 0.0
2017-Sep-13 15:00N 34°40' E 135°22'0 0.0
2017-Sep-13 14:30N 34°40' E 135°22'0 0.0
2017-Sep-13 14:01N 34°40' E 135°22'0 0.1
2017-Sep-13 13:30N 34°40' E 135°22'0 0.0
2017-Sep-13 13:01N 34°40' E 135°22'0 0.0
2017-Sep-13 12:31N 34°40' E 135°22'0 0.0
2017-Sep-13 12:01N 34°40' E 135°22'0 0.0
2017-Sep-13 11:31N 34°40' E 135°22'0 0.0
2017-Sep-13 11:01N 34°40' E 135°22'0 0.0
2017-Sep-13 10:30N 34°40' E 135°22'1 2.6
2017-Sep-13 10:01N 34°39' E 135°21'611.3
2017-Sep-13 09:31N 34°36' E 135°15'611.5
2017-Sep-13 09:00N 34°35' E 135°08'510.9
2017-Sep-13 08:31N 34°36' E 135°02'  

Dump ship's entire track history